AirNav   Air Wisconsin Up To $57,000 Bonus
 
 937 users online  

80D Clare County Airport
Harrison, Michigan, USA

GOING TO HARRISON?


FAA INFORMATION EFFECTIVE 11 AUGUST 2022

Location

FAA Identifier: 80D
Lat/Long: 44-03-08.1907N 084-48-47.3103W
44-03.136512N 084-48.788505W
44.0522752,-84.8131417
(estimated)
Elevation: 1142 ft. / 348 m (estimated)
Variation: 05W (1985)
From city: 2 miles NW of HARRISON, MI
Time zone: UTC -4 (UTC -5 during Standard Time)
Zip code: 48625

Airport Operations

Airport use: Open to the public
Activation date: 04/1940
Control tower: no
ARTCC: MINNEAPOLIS CENTER
FSS: LANSING FLIGHT SERVICE STATION
NOTAMs facility: LAN (NOTAM-D service available)
Attendance: UNATNDD
Wind indicator: yes
Segmented circle: yes
Lights: ACTVT NSTD LIRL - CTAF.
Beacon: white-green (lighted land airport)
Operates sunset to sunrise.

Airport Communications

CTAF/UNICOM: 122.8
WX ASOS at HTL (19 nm N): 118.05 (989-366-4825)

Nearby radio navigation aids

VOR radial/distance  VOR name  Freq  Var
MOPr358/26.0MOUNT PLEASANT VOR/DME110.6005W
CGGr191/(37.9)GRAYLING VOR109.8006W

Airport Services

Parking: tiedowns
Airframe service: NONE
Powerplant service: NONE
Bottled oxygen: NONE
Bulk oxygen: NONE

Runway Information

Runway 18/36

Dimensions: 2978 x 50 ft. / 908 x 15 m
Surface: asphalt, in poor condition
EXTSV CRACKING.
Runway edge lights: non-standard
NSTD LIRL DUE TO IMPROPER COLOR & LCTN.
RUNWAY 18  RUNWAY 36
Latitude: 44-03.272167N44-02.782000N
Longitude: 084-48.779667W084-48.787167W
Elevation: 1141.0 ft.1138.0 ft.
Traffic pattern: leftleft
Displaced threshold: 465 ft.1160 ft.
Markings: basic, in good conditionbasic, in good condition
Runway end identifier lights: nono
Obstructions: 50 ft. trees, 300 ft. from runway, 125 ft. right of centerline, 2:1 slope to clear
APCH RATIO 10:1 AT DTHR OVR 60 FT TREES, 645 FT DIST, 155 FT L; 20:1 BASED ON STRAIGHT OUT.
70 ft. trees, 208 ft. from runway
4 FT FENCE, 75 FT FM THR, L/R; 30 FT PLINE, 177 FT FM THR, L/R; 70 FT TREES, 199 FM THR, L/R.

Runway 5/23

Dimensions: 3000 x 100 ft. / 914 x 30 m
Surface: turf, in poor condition
INTER PATCHES OF MISG TURF THRUT FULL LEN & WID.
Runway edge markings: RWY & DTHR MKD WITH 3 FT YELLOW CONES.
Operational restrictions: CLSD NOV-MAR & WHEN SNOW COVD EXC FOR SKI EQUIPPED ACFT.
RUNWAY 5  RUNWAY 23
Latitude: 44-02.962333N44-03.294333N
Longitude: 084-49.037833W084-48.531667W
Elevation: 1139.0 ft.1141.0 ft.
Traffic pattern: leftleft
Runway heading: 053 magnetic, 048 true233 magnetic, 228 true
Displaced threshold: no800 ft.
Obstructions: 35 ft. trees, 115 ft. left of centerline
APCH RATIO 20:1 AT DTHR OVR 100 FT TREES ON HILL, 2000 FT DIST.
11 ft. bldg, 30 ft. from runway, 88 ft. right of centerline, 2:1 slope to clear
APCH RATIO 14:1 AT DTHR OVR 82 FT TREES, 1210 FT DIST, 65 FT L; 19:1 BASED ON STRAIGHT OUT.

Runway 9/27

Dimensions: 2403 x 100 ft. / 732 x 30 m
Surface: turf, in poor condition
INTER PATCHES OF MISG TURF THRUT FULL LEN & WID.
Runway edge markings: RWY & DTHR MKD WITH 3 FT YELLOW CONES.
Operational restrictions: CLSD NOV-MAR & WHEN SNOW COVD EXC FOR SKI EQUIPPED ACFT.
RUNWAY 9  RUNWAY 27
Latitude: 44-03.291000N44-03.273667N
Longitude: 084-49.073500W084-48.525500W
Elevation: 1142.0 ft.1141.0 ft.
Traffic pattern: leftleft
Runway heading: 098 magnetic, 093 true278 magnetic, 273 true
Displaced threshold: 1196 ft.837 ft.
Obstructions: 50 ft. trees, 103 ft. left of centerline
APCH RATIO 2:1 AT DTHR OVR 65 FT TREES, 110 FT DIST, 90 FT L; 17:1 BASED ON STRAIGHT OUT.
15 ft. road, 90 ft. from runway, 134 ft. left and right of centerline, 6:1 slope to clear
APCH RATIO 11:1 AT DTHR OVR 96 FT TREES, 1066 FT DIST, 125 FT R; 20:1 BASED ON STRAIGHT OUT.

Airport Ownership and Management from official FAA records

Ownership: Publicly-owned
Owner: COUNTY OF CLARE
PO BOX 438
HARRISON, MI 48625-0438
Phone 989-539-2510
Manager: GALE GENE BENSINGER
PO BOX 438
HARRISON, MI 48625-0438
Phone 989-862-5333

Airport Operational Statistics

Aircraft based on the field: 8
Single engine airplanes: 8
    
Aircraft operations: avg 96/week *
60% transient general aviation
40% local general aviation
* for 12-month period ending 31 December 2019

Additional Remarks

DEER ON & INVOF ARPT.
22 FT PLINE, 308 FT DIST, APCH RATIO 14:1, MKD WITH ORANGE BALLS.
FOR CD CTC MINNEAPOLIS ARTCC AT 651-463-5588.
RWY 05 DTHR 1700 FT, EXTDS BYD RWY MIDPT.

Instrument Procedures

There are no published instrument procedures at 80D.

Some nearby airports with instrument procedures:

48D - Clare Municipal Airport (13 nm S)
KGDW - Gladwin Zettel Memorial Airport (15 nm E)
KHTL - Roscommon County - Blodgett Memorial Airport (19 nm N)
KMOP - Mount Pleasant Municipal Airport (26 nm S)
KCAD - Wexford County Airport (29 nm NW)
 
Loc | Ops | Rwys | IFR | FBO | Links
Com | Nav | Svcs | Stats | Notes
Area around 80D (Clare County Airport)
 
Road maps at: MapQuest Bing Google
 
Aerial photo
WARNING: Photo may not be current or correct
Aerial photo of 80D (Clare County Airport)
Do you have a better or more recent aerial photo of Clare County Airport that you would like to share? If so, please send us your photo.

 
Sectional chart

 
Airport distance calculator
Flying to Clare County Airport? Find the distance to fly.

From to 80D

Sunrise and sunset
Times for 13-Aug-2022
 Local
(UTC-4)
 Zulu
(UTC)
Morning civil twilight06:1010:10
Sunrise06:4210:42
Sunset20:4600:46
Evening civil twilight21:1801:18

Current date and time
Zulu (UTC)  14-Aug-2022 02:14:54
Local (UTC-4)  13-Aug-2022 22:14:54
 
METAR
KHTL 
19nm N 
140153Z AUTO 18006KT 10SM OVC031 16/11 A3011 RMK AO2 SLP197 T01560111
KMOP 
26nm S 
140155Z AUTO 00000KT 10SM OVC030 15/11 A3010 RMK AO2 T01500113
KCAD 
29nm NW 
140155Z AUTO 14005KT 10SM -RA SCT008 BKN022 OVC033 13/12 A3010 RMK AO2 T01330122
KY31 
30nm NE 
140155Z AUTO 20003KT 10SM SCT041 OVC085 16/12 A3010 RMK AO2 T01590117
KIKW 
33nm SE 
140155Z AUTO 00000KT 10SM OVC036 17/11 A3010 RMK AO2 T01710114
KRQB 
36nm SW 
140155Z AUTO 11003KT 10SM SCT008 SCT039 OVC047 14/14 A3009 RMK AO2 T01380135 P0001
TAF
KMBS 
44nm SE 
132320Z 1400/1424 24005KT P6SM VCSH SCT035 OVC070 FM140600 VRB04KT 4SM -SHRA BR BKN015 OVC040 TEMPO 1408/1412 2SM -SHRA BR FM141200 14006KT P6SM OVC040 TEMPO 1412/1416 5SM -SHRA BR BKN015 OVC030 FM142200 09006KT 6SM HZ BKN022 OVC045
NOTAMs
Click for the latest NOTAMs
NOTAMs are issued by the DoD/FAA and will open in a separate window not controlled by AirNav.

 

 
 

Would you like to see your business listed on this page?

 If your business provides an interesting product or service to pilots, flight crews, aircraft, or users of the Clare County Airport, you should consider listing it here.  To start the listing process, click on the button below
 
Add a business
 

Other Pages about Clare County Airport

Page from the Michigan Airport Directory (PDF)
 
Update a link
 
Copyright © AirNav, LLC. All rights reserved. Privacy Policy  Contact